Togiak, AK

10:30 PM AKDT on September 19, 2017 (GMT -0800)
Togiak

Weather History for PATG - March, 2013

Change the Weather History Date:

Sunday, March 24, 2013

  Actual Average Record
Temperature  
Mean Temperature 9 °F -  
Max Temperature 15 °F 24 °F 42 °F (2015)
Min Temperature 1 °F 12 °F -7 °F (2007)
Degree Days  
Heating Degree Days 56    
Moisture  
Dew Point -2 °F    
Average Humidity 61    
Maximum Humidity 72    
Minimum Humidity 44    
Precipitation  
Precipitation 0.00 in - - ()
Sea Level Pressure  
Sea Level Pressure 30.00 in    
Wind  
Wind Speed 12 mph (NNW)    
Max Wind Speed 28 mph    
Max Gust Speed 29 mph    
Visibility 10 miles    
Events      
Averages and records for this station are not official NWS values.
T = Trace of Precipitation, MM = Missing Value Source: NWS Daily Summary

Daily Weather History Graph

Daily Weather History Graph

Search for Another Location

Airport or City:

Trip Planner

Search our weather history database for the weather conditions in past years. The results will help you decide how hot, cold, wet, or windy it might be!

Date:

Astronomy

Mar. 24, 2013 Rise Set
Actual Time 8:30 AM AKDT 9:06 PM AKDT
Civil Twilight 7:49 AM AKDT 9:47 PM AKDT
Nautical Twilight 7:00 AM AKDT 10:37 PM AKDT
Astronomical Twilight 6:06 AM AKDT 11:31 PM AKDT
Moon 6:22 PM AKDT (3/24) 7:17 AM AKDT (3/24)
Length of Visible Light 13h 57m
Length of Day
12h 36m
Waxing Gibbous, 92% of the Moon is Illuminated
Mar 24
Waxing Gibbous
Mar 27
Full
Apr 2
Last Quarter
Apr 10
New
Apr 18
First Quarter

Hourly Weather History & Observations

Time (AKDT) Temp. Windchill Dew Point Humidity Pressure Visibility Wind Dir Wind Speed Gust Speed Precip Events Conditions
12:16 AM 10.4 °F 2.2 °F 1.4 °F 67% 29.94 in 10.0 mi NNE 4.6 mph - N/A   Clear
12:36 AM 6.8 °F -4.8 °F -2.2 °F 67% 29.94 in 10.0 mi NNE 6.9 mph - N/A   Clear
12:56 AM 3.2 °F -6.2 °F -5.8 °F 66% 29.94 in 10.0 mi North 4.6 mph - N/A   Clear
1:16 AM 6.8 °F -3.5 °F -2.2 °F 67% 29.94 in 10.0 mi North 5.8 mph - N/A   Clear
1:36 AM 8.6 °F -2.6 °F -5.8 °F 52% 29.95 in 10.0 mi NW 6.9 mph - N/A   Clear
1:56 AM 3.2 °F -9.1 °F -9.4 °F 56% 29.94 in 10.0 mi North 6.9 mph - N/A   Clear
2:16 AM 3.2 °F -10.3 °F -7.6 °F 61% 29.94 in 10.0 mi NNW 8.1 mph - N/A   Clear
2:36 AM 3.2 °F -12.2 °F -7.6 °F 61% 29.95 in 10.0 mi North 10.4 mph - N/A   Clear
2:56 AM 5.0 °F -9.1 °F -2.2 °F 72% 29.95 in 10.0 mi NNE 9.2 mph - N/A   Clear
3:16 AM 3.2 °F -10.3 °F -9.4 °F 56% 29.95 in 10.0 mi North 8.1 mph - N/A   Clear
3:36 AM 6.8 °F -8.6 °F -2.2 °F 67% 29.95 in 10.0 mi North 11.5 mph - N/A   Clear
3:56 AM 6.8 °F -0.1 °F -11.2 °F 44% 29.96 in 10.0 mi North 3.5 mph - N/A   Clear
4:16 AM 10.4 °F -3.3 °F -0.4 °F 62% 29.96 in 10.0 mi North 10.4 mph - N/A   Clear
4:36 AM 8.6 °F -5.5 °F -9.4 °F 44% 29.96 in 10.0 mi NNW 10.4 mph - N/A   Clear
4:56 AM 6.8 °F -6.9 °F -5.8 °F 56% 29.96 in 10.0 mi NNE 9.2 mph - N/A   Clear
5:16 AM 6.8 °F -6.9 °F -5.8 °F 56% 29.96 in 10.0 mi NNE 9.2 mph - N/A   Clear
5:36 AM 8.6 °F -8.9 °F -5.8 °F 52% 29.96 in 10.0 mi North 16.1 mph - N/A   Clear
5:56 AM 8.6 °F -9.5 °F -2.2 °F 62% 29.96 in 10.0 mi North 17.3 mph - N/A   Clear
6:16 AM 10.4 °F -7.2 °F -2.2 °F 57% 29.95 in 10.0 mi NNE 17.3 mph - N/A   Clear
6:36 AM 8.6 °F -8.9 °F -4.0 °F 57% 29.96 in 10.0 mi NNE 16.1 mph - N/A   Clear
6:56 AM 8.6 °F 2.0 °F -2.2 °F 62% 29.98 in 10.0 mi ENE 3.5 mph - N/A   Clear
7:16 AM 8.6 °F -7.7 °F -4.0 °F 57% 29.97 in 10.0 mi NNW 13.8 mph - N/A   Clear
7:36 AM 10.4 °F -5.4 °F -2.2 °F 57% 29.97 in 10.0 mi NNW 13.8 mph - N/A   Clear
7:56 AM 8.6 °F -8.9 °F -5.8 °F 52% 29.98 in 10.0 mi NNW 16.1 mph - N/A   Clear
8:16 AM 8.6 °F -11.9 °F -2.2 °F 62% 29.97 in 10.0 mi NW 23.0 mph - N/A   Clear
8:36 AM 8.6 °F -8.3 °F -4.0 °F 57% 29.98 in 10.0 mi NW 15.0 mph - N/A   Clear
8:56 AM 8.6 °F -2.6 °F -0.4 °F 67% 29.99 in 10.0 mi NE 6.9 mph - N/A   Clear
9:16 AM 10.4 °F -5.4 °F -2.2 °F 57% 29.99 in 10.0 mi NNW 13.8 mph 18.4 mph N/A   Clear
9:36 AM 10.4 °F -0.4 °F -4.0 °F 52% 30.00 in 10.0 mi North 6.9 mph 21.9 mph N/A   Clear
9:56 AM 8.6 °F - -5.8 °F 52% 30.00 in 10.0 mi Calm Calm - N/A   Clear
10:16 AM 10.4 °F -5.4 °F 1.4 °F 67% 30.00 in 10.0 mi NW 13.8 mph 23.0 mph N/A   Clear
10:36 AM 10.4 °F -7.2 °F -0.4 °F 62% 30.00 in 10.0 mi NW 17.3 mph - N/A   Clear
10:56 AM 12.2 °F -3.1 °F -0.4 °F 57% 30.01 in 10.0 mi North 13.8 mph - N/A   Clear
11:16 AM 10.4 °F -7.7 °F -0.4 °F 62% 30.01 in 10.0 mi NW 18.4 mph - N/A   Clear
11:36 AM 10.4 °F -8.2 °F -0.4 °F 62% 30.01 in 10.0 mi NW 19.6 mph - N/A   Clear
11:56 AM 12.2 °F -5.3 °F 3.2 °F 67% 30.01 in 10.0 mi WNW 18.4 mph - N/A   Clear
12:16 PM 12.2 °F -3.1 °F 1.4 °F 62% 30.02 in 10.0 mi WNW 13.8 mph - N/A   Clear
12:36 PM 12.2 °F -6.3 °F 1.4 °F 62% 30.01 in 10.0 mi WNW 20.7 mph - N/A   Clear
12:56 PM 12.2 °F -6.7 °F 3.2 °F 67% 30.01 in 10.0 mi WNW 21.9 mph - N/A   Clear
1:16 PM 12.2 °F -7.1 °F 3.2 °F 67% 30.01 in 10.0 mi WNW 23.0 mph - N/A   Clear
1:36 PM 12.2 °F -6.7 °F 1.4 °F 62% 30.02 in 10.0 mi WNW 21.9 mph - N/A   Clear
1:56 PM 12.2 °F -5.3 °F 3.2 °F 67% 30.02 in 10.0 mi NNW 18.4 mph 24.2 mph N/A   Clear
2:16 PM 12.2 °F -6.7 °F 1.4 °F 62% 30.02 in 10.0 mi NW 21.9 mph - N/A   Clear
2:36 PM 12.2 °F -6.7 °F 1.4 °F 62% 30.02 in 10.0 mi NW 21.9 mph - N/A   Clear
2:56 PM 14.0 °F -5.8 °F 3.2 °F 62% 30.01 in 10.0 mi NW 26.5 mph - N/A   Clear
3:16 PM 14.0 °F -2.5 °F 1.4 °F 57% 30.02 in 10.0 mi NNW 17.3 mph - N/A   Clear
3:36 PM 15.8 °F 0.9 °F 3.2 °F 58% 30.02 in 10.0 mi North 15.0 mph - N/A   Clear
3:56 PM 15.8 °F 1.4 °F 1.4 °F 53% 30.02 in 10.0 mi NNW 13.8 mph - N/A   Clear
4:16 PM 15.8 °F 2.1 °F 1.4 °F 53% 30.02 in 10.0 mi NNW 12.7 mph - N/A   Clear
4:36 PM 15.8 °F 0.3 °F 1.4 °F 53% 30.02 in 10.0 mi NNW 16.1 mph - N/A   Clear
4:56 PM 14.0 °F 0.5 °F 1.4 °F 57% 30.02 in 10.0 mi North 11.5 mph 17.3 mph N/A   Clear
5:16 PM 14.0 °F 0.5 °F 1.4 °F 57% 30.03 in 10.0 mi NW 11.5 mph - N/A   Clear
5:36 PM 12.2 °F 4.3 °F -0.4 °F 57% 30.03 in 10.0 mi WNW 4.6 mph - N/A   Clear
5:56 PM 12.2 °F - -0.4 °F 57% 30.04 in 10.0 mi Calm Calm - N/A   Clear
6:16 PM 12.2 °F - -2.2 °F 53% 30.05 in 10.0 mi Calm Calm - N/A   Clear
6:36 PM 10.4 °F -4.8 °F -0.4 °F 62% 30.04 in 10.0 mi North 12.7 mph - N/A   Clear
6:56 PM 10.4 °F -7.2 °F -4.0 °F 52% 30.04 in 10.0 mi NNW 17.3 mph 24.2 mph N/A   Clear
7:16 PM 8.6 °F -8.9 °F -2.2 °F 62% 30.04 in 10.0 mi NW 16.1 mph - N/A   Clear
7:36 PM 8.6 °F -5.5 °F -2.2 °F 62% 30.05 in 10.0 mi NW 10.4 mph - N/A   Clear
7:56 PM 6.8 °F -11.8 °F -5.8 °F 56% 30.04 in 10.0 mi WNW 17.3 mph - N/A   Clear
8:16 PM 6.8 °F -12.4 °F -0.4 °F 72% 30.03 in 10.0 mi NW 18.4 mph - N/A   Clear
8:36 PM 6.8 °F -11.8 °F -2.2 °F 67% 30.03 in 10.0 mi NNW 17.3 mph - N/A   Clear
8:56 PM 6.8 °F -15.1 °F -5.8 °F 56% 30.02 in 10.0 mi NW 25.3 mph - N/A   Clear
9:16 PM 5.0 °F -15.7 °F -2.2 °F 72% 30.02 in 10.0 mi NNW 20.7 mph - N/A   Clear
9:36 PM 6.8 °F -13.4 °F -2.2 °F 67% 30.03 in 10.0 mi NNW 20.7 mph 28.8 mph N/A   Clear
9:56 PM 6.8 °F -10.7 °F -5.8 °F 56% 30.04 in 10.0 mi WNW 15.0 mph 25.3 mph N/A   Clear
10:16 PM 5.0 °F -11.6 °F -2.2 °F 72% 30.04 in 10.0 mi NW 12.7 mph 20.7 mph N/A   Clear
10:36 PM 3.2 °F -16.5 °F -5.8 °F 66% 30.03 in 10.0 mi NW 17.3 mph - N/A   Clear
10:56 PM 3.2 °F -20.7 °F -4.0 °F 72% 30.02 in 5.0 mi NW 27.6 mph - N/A   Clear
11:16 PM 3.2 °F -13.9 °F -4.0 °F 72% 30.04 in 10.0 mi NW 12.7 mph - N/A   Clear
11:36 PM 3.2 °F -18.6 °F -7.6 °F 61% 30.03 in 10.0 mi WNW 21.9 mph 25.3 mph N/A   Clear
11:56 PM 1.4 °F -21.9 °F -5.8 °F 72% 30.03 in 10.0 mi WNW 24.2 mph - N/A   Clear